メインページ
METAR-TAF:

METAR-TAF

空港 :

シント・マールテン, オランダ領アンティル

プリンセス・ジュリアナ国際空港

緯度: 18-03N, 経度: 063-07W, 海抜: 4m

現時点の気象観測

当レポートは28分前の16:00(UTC)に作成
東/北東の風 11kt、北/北東からの間で変化する
気温 30°C
湿度 70%
気圧 1014 hPa
視程10km以上
高度1900ftの千切れ雲あり, 塔状積雲.

METAR: TNCM 221600Z 06011KT 030V100 9999 BKN019TCU 30/24 Q1014 A2995 NOSIG

時間: 12:28 (16:28 UTC)

予報

当レポートは4時間49分前の11:39(UTC)に作成
予報は22日の 12時(UTC)から 23日の 12時(UTC)まで有効
の風 5kt
視程: 10km
高度2000ftの雲は散在している
22日の 1400時(UTC)から
の風 10kt
視程: 10km
高度2200ftの雲は散在している
22日の 1800時(UTC)から
東/南東の風 12kt
視程: 10km
高度2200ftの雲は散在している
高度4000ftの千切れ雲あり
近辺でにわか雨
22日の 2300時(UTC)から
の風 5kt
視程: 10km
高度1900ftの雲は散在している
高度5000ftの千切れ雲あり

TAF: TNCM 221139Z 2212/2312 09005KT P6SM SCT020 FM221400 10010KT P6SM SCT022 FM221800 12012KT P6SM VCSH SCT022 BKN040 FM222300 08005KT P6SM SCT019 BKN050

4,000以上の空港の気象観測と天気予報(METAR報とTAF報)

利用可能な観測所は地図上に黄色い丸と赤い丸で示す。

丸の上にカーソルを重ねると観測所名を参照できる。

次にクリックすると気象観測と天気予報を参照できる。

マップの切り替え:黒色「×」印の緑ボタンをクリックして拡大、「-」印の緑ボタンをクリックして縮小、緑色の三角印をクリックして隣りの地図に切り替え


METAR-TAF: